Time;durP1;ratioP1;P1;durP2;ratioP2;P2;SDS_P1;SDS_P2;PMS_P1;PMS_P2;Temp;Humidity;BMP_temperature;BMP_pressure;BME280_temperature;BME280_humidity;BME280_pressure;Samples;Min_cycle;Max_cycle;Signal;HPM_P1;HPM_P2
2021/07/03 00:00:08;;;;;;;3.92;3.53;;;;;;;;;;5046011;28;20399;-79
2021/07/03 00:02:53;;;;;;;4.32;3.47;;;;;;;;;;5060717;28;20094;-78
2021/07/03 00:05:37;;;;;;;4.13;3.60;;;;;;;;;;5044247;28;20047;-79
2021/07/03 00:08:27;;;;;;;4.00;3.47;;;;;;;;;;5064286;28;20054;-79
2021/07/03 00:11:12;;;;;;;4.47;3.45;;;;;;;;;;5066201;28;20790;-78
2021/07/03 00:13:56;;;;;;;3.90;3.50;;;;;;;;;;5051684;28;20051;-79
2021/07/03 00:16:41;;;;;;;4.10;3.70;;;;;;;;;;5065960;28;20525;-78
2021/07/03 00:19:26;;;;;;;4.22;3.75;;;;;;;;;;5062272;28;20192;-78
2021/07/03 00:22:11;;;;;;;4.75;3.85;;;;;;;;;;5065543;28;20387;-79
2021/07/03 00:24:55;;;;;;;4.53;3.13;;;;;;;;;;5064407;28;20143;-79
2021/07/03 00:27:40;;;;;;;4.72;3.65;;;;;;;;;;5064905;28;20157;-79
2021/07/03 00:30:25;;;;;;;3.45;3.10;;;;;;;;;;5064185;28;20043;-79
2021/07/03 00:33:10;;;;;;;4.60;3.97;;;;;;;;;;5051876;28;20044;-79
2021/07/03 00:35:54;;;;;;;5.40;3.85;;;;;;;;;;5064209;28;20047;-78
2021/07/03 00:38:40;;;;;;;3.92;3.50;;;;;;;;;;5064677;28;20056;-79
2021/07/03 00:41:24;;;;;;;4.45;3.50;;;;;;;;;;5064245;28;20506;-78
2021/07/03 00:44:09;;;;;;;3.85;3.45;;;;;;;;;;5064260;28;20166;-79
2021/07/03 00:46:53;;;;;;;3.80;3.38;;;;;;;;;;5045510;28;20040;-79
2021/07/03 00:49:38;;;;;;;4.28;3.15;;;;;;;;;;5057751;28;20035;-79
2021/07/03 00:52:23;;;;;;;4.28;3.58;;;;;;;;;;5066449;28;20067;-79
2021/07/03 00:55:08;;;;;;;4.53;3.50;;;;;;;;;;5064897;28;20112;-79
2021/07/03 00:57:52;;;;;;;5.30;3.70;;;;;;;;;;5065791;28;20514;-79
2021/07/03 01:00:37;;;;;;;4.78;3.60;;;;;;;;;;5063620;28;20481;-79
2021/07/03 01:03:21;;;;;;;4.45;3.47;;;;;;;;;;5044577;28;20570;-79
2021/07/03 01:06:06;;;;;;;3.95;3.42;;;;;;;;;;5045542;28;20044;-79
2021/07/03 01:08:50;;;;;;;3.90;3.40;;;;;;;;;;5046421;28;20043;-79
2021/07/03 01:11:35;;;;;;;4.43;3.38;;;;;;;;;;5059962;28;20086;-78
2021/07/03 01:14:20;;;;;;;4.03;3.60;;;;;;;;;;5065237;28;20387;-79
2021/07/03 01:17:04;;;;;;;4.60;3.40;;;;;;;;;;5061848;28;20490;-79
2021/07/03 01:19:50;;;;;;;3.95;3.40;;;;;;;;;;5063869;28;20109;-78
2021/07/03 01:22:34;;;;;;;3.88;3.42;;;;;;;;;;5064997;28;20158;-79
2021/07/03 01:25:19;;;;;;;4.20;3.60;;;;;;;;;;5054120;28;20499;-78
2021/07/03 01:28:05;;;;;;;4.72;3.72;;;;;;;;;;5045062;28;20564;-79
2021/07/03 01:30:50;;;;;;;4.93;3.38;;;;;;;;;;5041750;28;20040;-78
2021/07/03 01:33:35;;;;;;;4.13;3.60;;;;;;;;;;5043917;28;20544;-79
2021/07/03 01:36:20;;;;;;;6.18;3.95;;;;;;;;;;5045091;28;20039;-78
2021/07/03 01:39:05;;;;;;;4.22;3.60;;;;;;;;;;5064671;28;20050;-78
2021/07/03 01:41:50;;;;;;;4.03;3.45;;;;;;;;;;5063291;28;20090;-79
2021/07/03 01:44:34;;;;;;;5.88;3.50;;;;;;;;;;5058014;28;20557;-79
2021/07/03 01:47:19;;;;;;;3.92;3.53;;;;;;;;;;5064957;28;20047;-79
2021/07/03 01:50:04;;;;;;;4.50;3.78;;;;;;;;;;5045770;28;20098;-79
2021/07/03 01:52:52;;;;;;;4.55;3.80;;;;;;;;;;5064438;28;20691;-79
2021/07/03 01:55:36;;;;;;;5.15;3.58;;;;;;;;;;5065838;28;20052;-78
2021/07/03 01:58:21;;;;;;;4.38;3.47;;;;;;;;;;5066888;28;20177;-79
2021/07/03 02:01:06;;;;;;;4.68;3.63;;;;;;;;;;5064856;28;20048;-79
2021/07/03 02:03:51;;;;;;;4.55;3.80;;;;;;;;;;5066492;28;20422;-79
2021/07/03 02:06:35;;;;;;;4.28;3.70;;;;;;;;;;5065750;28;20038;-79
2021/07/03 02:09:20;;;;;;;4.93;3.70;;;;;;;;;;5051683;28;20079;-79
2021/07/03 02:12:05;;;;;;;4.18;3.72;;;;;;;;;;5065082;28;20509;-78
2021/07/03 02:14:50;;;;;;;5.55;3.80;;;;;;;;;;5041538;28;20093;-78
2021/07/03 02:17:34;;;;;;;4.13;3.30;;;;;;;;;;5056852;28;20043;-79
2021/07/03 02:20:19;;;;;;;5.15;3.67;;;;;;;;;;5052585;28;20054;-79
2021/07/03 02:23:04;;;;;;;5.32;3.78;;;;;;;;;;5064979;28;20050;-79
2021/07/03 02:25:48;;;;;;;4.53;3.88;;;;;;;;;;5051702;28;20553;-79
2021/07/03 02:28:33;;;;;;;4.32;3.60;;;;;;;;;;5051237;28;20036;-78
2021/07/03 02:31:17;;;;;;;4.50;3.78;;;;;;;;;;5066304;28;20576;-79
2021/07/03 02:34:02;;;;;;;5.63;3.67;;;;;;;;;;5064991;28;20530;-79
2021/07/03 02:36:47;;;;;;;4.72;3.67;;;;;;;;;;5053436;28;20089;-79
2021/07/03 02:39:32;;;;;;;4.47;3.90;;;;;;;;;;5065278;28;20050;-79
2021/07/03 02:42:16;;;;;;;4.22;3.80;;;;;;;;;;5065837;28;20055;-79
2021/07/03 02:45:01;;;;;;;4.35;3.75;;;;;;;;;;5059625;28;20461;-79
2021/07/03 02:47:46;;;;;;;5.72;4.00;;;;;;;;;;5066028;28;20097;-78
2021/07/03 02:50:31;;;;;;;5.38;3.75;;;;;;;;;;5065945;28;20034;-79
2021/07/03 02:53:15;;;;;;;4.78;3.90;;;;;;;;;;5065322;28;20513;-79
2021/07/03 02:56:01;;;;;;;4.72;3.97;;;;;;;;;;5065077;28;20592;-79
2021/07/03 02:58:45;;;;;;;6.28;3.85;;;;;;;;;;5064944;28;20056;-79
2021/07/03 03:01:30;;;;;;;4.97;4.00;;;;;;;;;;5065701;28;20110;-80
2021/07/03 03:04:14;;;;;;;4.28;3.78;;;;;;;;;;5064984;28;20094;-79
2021/07/03 03:06:59;;;;;;;4.60;3.80;;;;;;;;;;5051910;28;20031;-79
2021/07/03 03:09:43;;;;;;;4.22;3.55;;;;;;;;;;5064826;28;20052;-79
2021/07/03 03:12:28;;;;;;;5.47;3.60;;;;;;;;;;5066099;28;20593;-80
2021/07/03 03:15:13;;;;;;;5.10;3.80;;;;;;;;;;5059451;28;20166;-80
2021/07/03 03:17:58;;;;;;;4.50;3.80;;;;;;;;;;5065665;28;20036;-80
2021/07/03 03:20:42;;;;;;;4.95;3.83;;;;;;;;;;5063920;28;20600;-80
2021/07/03 03:23:27;;;;;;;5.05;4.00;;;;;;;;;;5067038;28;20554;-79
2021/07/03 03:26:12;;;;;;;4.38;3.85;;;;;;;;;;5064299;28;20069;-80
2021/07/03 03:28:56;;;;;;;4.43;3.75;;;;;;;;;;5065783;28;20043;-79
2021/07/03 03:31:41;;;;;;;5.35;3.88;;;;;;;;;;5050941;28;20039;-79
2021/07/03 03:34:26;;;;;;;4.30;3.58;;;;;;;;;;5059287;28;20040;-79
2021/07/03 03:37:10;;;;;;;4.85;3.97;;;;;;;;;;5065767;28;20101;-79
2021/07/03 03:39:55;;;;;;;5.07;4.10;;;;;;;;;;5044205;28;20099;-79
2021/07/03 03:42:40;;;;;;;6.13;4.22;;;;;;;;;;5064130;28;20055;-79
2021/07/03 03:45:24;;;;;;;5.18;3.75;;;;;;;;;;5066210;28;20503;-80
2021/07/03 03:48:09;;;;;;;4.13;3.67;;;;;;;;;;5066117;28;20832;-79
2021/07/03 03:50:53;;;;;;;6.03;4.28;;;;;;;;;;5065115;28;20130;-79
2021/07/03 03:53:38;;;;;;;6.63;4.30;;;;;;;;;;5064229;28;20044;-79
2021/07/03 03:56:22;;;;;;;4.88;3.78;;;;;;;;;;5065144;28;20538;-79
2021/07/03 03:59:07;;;;;;;6.18;4.18;;;;;;;;;;5064438;28;20621;-79
2021/07/03 04:01:52;;;;;;;5.10;3.92;;;;;;;;;;5045770;28;20043;-79
2021/07/03 04:04:36;;;;;;;4.97;4.22;;;;;;;;;;5050448;28;20044;-80
2021/07/03 04:07:20;;;;;;;5.50;4.25;;;;;;;;;;5068979;28;20106;-79
2021/07/03 04:10:06;;;;;;;6.03;4.15;;;;;;;;;;5066839;28;20101;-79
2021/07/03 04:12:50;;;;;;;5.90;4.10;;;;;;;;;;5052545;28;20035;-79
2021/07/03 04:15:35;;;;;;;5.65;3.83;;;;;;;;;;5049705;28;20097;-79
2021/07/03 04:18:19;;;;;;;6.20;4.28;;;;;;;;;;5057595;28;20128;-80
2021/07/03 04:21:04;;;;;;;6.00;4.22;;;;;;;;;;5053273;28;20044;-79
2021/07/03 04:23:48;;;;;;;6.30;4.20;;;;;;;;;;5068697;28;20125;-80
2021/07/03 04:26:33;;;;;;;6.95;4.32;;;;;;;;;;5068315;28;20127;-80
2021/07/03 04:29:17;;;;;;;4.97;4.38;;;;;;;;;;5068139;28;20389;-80
2021/07/03 04:32:02;;;;;;;5.40;4.22;;;;;;;;;;5067215;28;20047;-80
2021/07/03 04:34:47;;;;;;;6.28;4.80;;;;;;;;;;5068142;28;20040;-80
2021/07/03 04:37:32;;;;;;;5.50;3.92;;;;;;;;;;5068279;28;20047;-80
2021/07/03 04:40:17;;;;;;;6.20;4.25;;;;;;;;;;5044022;28;20589;-80
2021/07/03 04:43:02;;;;;;;5.20;4.22;;;;;;;;;;5055403;28;20102;-80
2021/07/03 04:45:46;;;;;;;6.25;4.32;;;;;;;;;;5048478;28;20844;-80
2021/07/03 04:48:31;;;;;;;6.50;4.50;;;;;;;;;;5046688;28;20039;-80
2021/07/03 04:51:16;;;;;;;5.20;4.50;;;;;;;;;;5064722;28;20399;-80
2021/07/03 04:54:00;;;;;;;6.38;4.20;;;;;;;;;;5065750;28;20058;-80
2021/07/03 04:56:45;;;;;;;4.90;4.00;;;;;;;;;;5045980;28;20048;-80
2021/07/03 04:59:29;;;;;;;6.30;4.72;;;;;;;;;;5034799;28;20060;-80
2021/07/03 05:02:14;;;;;;;5.55;4.18;;;;;;;;;;5064750;28;20507;-80
2021/07/03 05:04:59;;;;;;;5.30;4.32;;;;;;;;;;5064449;28;20081;-80
2021/07/03 05:07:44;;;;;;;5.93;4.20;;;;;;;;;;5067051;28;20071;-80
2021/07/03 05:10:28;;;;;;;5.28;4.05;;;;;;;;;;5062302;28;20031;-81
2021/07/03 05:13:12;;;;;;;4.70;4.03;;;;;;;;;;5046528;28;20144;-80
2021/07/03 05:15:57;;;;;;;4.82;4.13;;;;;;;;;;5050249;28;20511;-81
2021/07/03 05:18:41;;;;;;;4.63;4.10;;;;;;;;;;5051268;28;20932;-80
2021/07/03 05:21:26;;;;;;;5.30;4.22;;;;;;;;;;5063538;28;20098;-79
2021/07/03 05:24:10;;;;;;;5.47;4.45;;;;;;;;;;5063895;28;20147;-81
2021/07/03 05:26:55;;;;;;;4.90;4.05;;;;;;;;;;5064236;28;20395;-80
2021/07/03 05:29:40;;;;;;;5.88;4.30;;;;;;;;;;5050101;28;20044;-80
2021/07/03 05:32:24;;;;;;;5.75;4.57;;;;;;;;;;5063445;28;20055;-79
2021/07/03 05:35:09;;;;;;;6.43;4.40;;;;;;;;;;5064797;28;20075;-81
2021/07/03 05:37:54;;;;;;;5.00;4.20;;;;;;;;;;5065674;28;20303;-79
2021/07/03 05:40:39;;;;;;;5.57;4.25;;;;;;;;;;5050253;28;20125;-80
2021/07/03 05:43:23;;;;;;;4.75;4.25;;;;;;;;;;5063738;28;20117;-80
2021/07/03 05:46:08;;;;;;;4.95;3.95;;;;;;;;;;5065370;28;20048;-80
2021/07/03 05:48:53;;;;;;;5.68;4.50;;;;;;;;;;5064594;28;20035;-80
2021/07/03 05:51:38;;;;;;;5.20;4.70;;;;;;;;;;5064584;28;20529;-81
2021/07/03 05:54:22;;;;;;;5.05;4.18;;;;;;;;;;5064457;28;20046;-80
2021/07/03 05:57:07;;;;;;;5.63;4.22;;;;;;;;;;5050470;28;20158;-80
2021/07/03 05:59:52;;;;;;;4.72;4.20;;;;;;;;;;5057074;28;20398;-80
2021/07/03 06:02:36;;;;;;;5.10;4.15;;;;;;;;;;5030819;28;20319;-79
2021/07/03 06:05:21;;;;;;;5.10;4.35;;;;;;;;;;5056614;28;20079;-80
2021/07/03 06:08:05;;;;;;;5.78;4.55;;;;;;;;;;5050548;28;20050;-80
2021/07/03 06:10:50;;;;;;;5.45;4.32;;;;;;;;;;5062974;28;20043;-79
2021/07/03 06:13:35;;;;;;;4.72;4.13;;;;;;;;;;5064650;28;20068;-80
2021/07/03 06:16:20;;;;;;;4.78;4.22;;;;;;;;;;5059173;28;20070;-80
2021/07/03 06:19:05;;;;;;;5.50;4.05;;;;;;;;;;5063616;28;20470;-80
2021/07/03 06:21:50;;;;;;;4.78;4.10;;;;;;;;;;5043528;28;20039;-80
2021/07/03 06:24:34;;;;;;;4.45;3.95;;;;;;;;;;5062179;28;20127;-80
2021/07/03 06:27:19;;;;;;;4.95;4.20;;;;;;;;;;5062135;28;20040;-81
2021/07/03 06:30:04;;;;;;;4.55;3.80;;;;;;;;;;5049081;28;20548;-81
2021/07/03 06:32:49;;;;;;;6.00;4.20;;;;;;;;;;5030099;28;20090;-80
2021/07/03 06:35:34;;;;;;;4.95;4.35;;;;;;;;;;5054443;28;20093;-80
2021/07/03 06:38:18;;;;;;;4.65;4.05;;;;;;;;;;5063963;28;20474;-80
2021/07/03 06:41:03;;;;;;;4.25;3.85;;;;;;;;;;5063362;28;20093;-81
2021/07/03 06:43:47;;;;;;;5.22;4.10;;;;;;;;;;5062640;28;20596;-80
2021/07/03 06:46:32;;;;;;;4.90;3.80;;;;;;;;;;5062512;28;20419;-80
2021/07/03 06:49:16;;;;;;;5.10;3.88;;;;;;;;;;5064089;28;20071;-81
2021/07/03 06:52:01;;;;;;;4.25;3.83;;;;;;;;;;5063577;28;20067;-80
2021/07/03 06:54:46;;;;;;;4.68;3.97;;;;;;;;;;5049871;28;20244;-80
2021/07/03 06:57:30;;;;;;;4.47;3.85;;;;;;;;;;5062219;28;20036;-80
2021/07/03 07:00:15;;;;;;;4.60;3.83;;;;;;;;;;5064109;28;20132;-80
2021/07/03 07:02:59;;;;;;;4.05;3.65;;;;;;;;;;5063789;28;20063;-81
2021/07/03 07:05:44;;;;;;;4.43;3.47;;;;;;;;;;5062043;28;20044;-80
2021/07/03 07:08:29;;;;;;;4.25;3.60;;;;;;;;;;5042567;28;20122;-80
2021/07/03 07:11:13;;;;;;;4.93;3.72;;;;;;;;;;5035494;28;20136;-80
2021/07/03 07:13:58;;;;;;;4.10;3.70;;;;;;;;;;5056105;28;20043;-81
2021/07/03 07:16:42;;;;;;;4.70;3.88;;;;;;;;;;5049662;28;20071;-80
2021/07/03 07:19:27;;;;;;;4.60;3.50;;;;;;;;;;5046408;28;20098;-81
2021/07/03 07:22:12;;;;;;;4.53;3.67;;;;;;;;;;5052270;28;20044;-80
2021/07/03 07:24:56;;;;;;;4.72;3.80;;;;;;;;;;5036307;28;20124;-80
2021/07/03 07:27:41;;;;;;;4.35;3.80;;;;;;;;;;5064616;28;20082;-80
2021/07/03 07:30:25;;;;;;;4.82;3.53;;;;;;;;;;5062539;28;20047;-81
2021/07/03 07:33:10;;;;;;;3.80;3.38;;;;;;;;;;5062684;28;20047;-81
2021/07/03 07:35:54;;;;;;;4.90;3.97;;;;;;;;;;5061777;28;20703;-79
2021/07/03 07:38:39;;;;;;;4.95;3.70;;;;;;;;;;5047670;28;20095;-81
2021/07/03 07:41:24;;;;;;;3.80;3.40;;;;;;;;;;5051305;28;20110;-80
2021/07/03 07:44:08;;;;;;;5.00;3.90;;;;;;;;;;5065641;28;20507;-79
2021/07/03 07:46:53;;;;;;;4.00;3.35;;;;;;;;;;5041332;28;20081;-80
2021/07/03 07:49:37;;;;;;;4.15;3.70;;;;;;;;;;5066504;28;20457;-81
2021/07/03 07:52:22;;;;;;;4.80;3.72;;;;;;;;;;5067885;28;20043;-80
2021/07/03 07:55:07;;;;;;;4.53;3.80;;;;;;;;;;5065721;28;20055;-79
2021/07/03 07:57:51;;;;;;;4.25;3.42;;;;;;;;;;5067764;28;20118;-80
2021/07/03 08:00:36;;;;;;;5.90;3.60;;;;;;;;;;5067894;28;20105;-81
2021/07/03 08:03:20;;;;;;;4.03;3.50;;;;;;;;;;5067559;28;20047;-81
2021/07/03 08:06:05;;;;;;;5.05;3.85;;;;;;;;;;5043490;28;20043;-80
2021/07/03 08:08:49;;;;;;;5.55;3.83;;;;;;;;;;5047452;28;20044;-80
2021/07/03 08:11:34;;;;;;;4.88;4.00;;;;;;;;;;5081725;28;20116;-80
2021/07/03 08:14:18;;;;;;;5.13;3.92;;;;;;;;;;5052173;28;20497;-80
2021/07/03 08:17:03;;;;;;;4.47;3.72;;;;;;;;;;5050115;28;20052;-80
2021/07/03 08:19:48;;;;;;;4.35;3.72;;;;;;;;;;5068662;28;20129;-81
2021/07/03 08:22:32;;;;;;;4.53;3.70;;;;;;;;;;5053161;28;20035;-80
2021/07/03 08:25:17;;;;;;;5.13;4.05;;;;;;;;;;5043637;28;20044;-80
2021/07/03 08:28:02;;;;;;;4.25;3.70;;;;;;;;;;5036331;28;20048;-82
2021/07/03 08:30:47;;;;;;;4.93;4.00;;;;;;;;;;5056672;28;20116;-80
2021/07/03 08:33:32;;;;;;;5.63;3.85;;;;;;;;;;5065081;28;20495;-80
2021/07/03 08:36:16;;;;;;;4.72;3.92;;;;;;;;;;5067574;28;20575;-80
2021/07/03 08:39:01;;;;;;;4.07;3.67;;;;;;;;;;5066325;28;20071;-80
2021/07/03 08:41:45;;;;;;;4.70;3.80;;;;;;;;;;5051830;28;20043;-80
2021/07/03 08:44:30;;;;;;;5.93;4.00;;;;;;;;;;5064805;28;20039;-81
2021/07/03 08:47:14;;;;;;;4.85;3.55;;;;;;;;;;5065982;28;20281;-80
2021/07/03 08:50:00;;;;;;;4.25;3.65;;;;;;;;;;5063777;28;20101;-80
2021/07/03 08:52:45;;;;;;;4.50;3.65;;;;;;;;;;5059704;28;20857;-80
2021/07/03 08:55:30;;;;;;;5.95;4.50;;;;;;;;;;5064929;28;20121;-81
2021/07/03 08:58:15;;;;;;;4.70;3.90;;;;;;;;;;5065986;28;20083;-80
2021/07/03 09:00:59;;;;;;;5.95;4.22;;;;;;;;;;5043669;28;20543;-81
2021/07/03 09:03:51;;;;;;;5.15;3.95;;;;;;;;;;5045747;28;20511;-81
2021/07/03 09:06:35;;;;;;;4.28;3.80;;;;;;;;;;5045137;28;20173;-81
2021/07/03 09:09:26;;;;;;;4.13;3.70;;;;;;;;;;5050452;28;20425;-81
2021/07/03 09:12:11;;;;;;;7.65;4.10;;;;;;;;;;5064377;28;20067;-80
2021/07/03 09:14:55;;;;;;;5.63;4.28;;;;;;;;;;5045836;28;20499;-81
2021/07/03 09:17:44;;;;;;;4.10;3.70;;;;;;;;;;5048667;28;20048;-80
2021/07/03 09:20:29;;;;;;;4.78;3.90;;;;;;;;;;5066763;28;20467;-81
2021/07/03 09:23:17;;;;;;;4.70;3.63;;;;;;;;;;5065243;28;20035;-80
2021/07/03 09:26:03;;;;;;;5.35;3.92;;;;;;;;;;5064279;28;20070;-80
2021/07/03 09:28:48;;;;;;;4.68;3.65;;;;;;;;;;5059268;28;20621;-82
2021/07/03 09:31:34;;;;;;;5.80;4.13;;;;;;;;;;5065279;28;20043;-81
2021/07/03 09:34:18;;;;;;;5.05;4.15;;;;;;;;;;5045076;28;20067;-80
2021/07/03 09:37:03;;;;;;;5.97;4.35;;;;;;;;;;5034298;28;20412;-80
2021/07/03 09:39:48;;;;;;;4.78;4.13;;;;;;;;;;5030921;28;20136;-80
2021/07/03 09:42:36;;;;;;;5.85;4.25;;;;;;;;;;5058735;28;20093;-79
2021/07/03 09:45:21;;;;;;;4.70;4.03;;;;;;;;;;5038985;28;20144;-80
2021/07/03 09:48:06;;;;;;;5.43;4.25;;;;;;;;;;5034622;28;20449;-80
2021/07/03 09:50:51;;;;;;;5.15;4.45;;;;;;;;;;5064504;28;20048;-80
2021/07/03 09:53:35;;;;;;;4.57;4.07;;;;;;;;;;5064901;28;20120;-80
2021/07/03 09:56:20;;;;;;;5.03;4.00;;;;;;;;;;5049575;28;20039;-79
2021/07/03 09:59:05;;;;;;;4.95;3.92;;;;;;;;;;5063277;28;20051;-81
2021/07/03 10:01:50;;;;;;;4.65;4.00;;;;;;;;;;5063740;28;20039;-80
2021/07/03 10:04:35;;;;;;;4.55;3.75;;;;;;;;;;5064586;28;20414;-80
2021/07/03 10:07:23;;;;;;;4.63;3.90;;;;;;;;;;5050383;28;20059;-80
2021/07/03 10:10:11;;;;;;;4.32;3.92;;;;;;;;;;5062416;28;20043;-80
2021/07/03 10:13:22;;;;;;;5.22;4.18;;;;;;;;;;5052884;28;20048;-79
2021/07/03 10:16:08;;;;;;;4.93;3.90;;;;;;;;;;5059056;28;20079;-81
2021/07/03 10:18:54;;;;;;;4.20;3.80;;;;;;;;;;5062445;28;20048;-80
2021/07/03 10:21:39;;;;;;;4.63;3.58;;;;;;;;;;5064229;28;20394;-81
2021/07/03 10:24:24;;;;;;;5.95;4.50;;;;;;;;;;5063048;28;20102;-81
2021/07/03 10:27:16;;;;;;;5.53;4.10;;;;;;;;;;5058323;28;20055;-81
2021/07/03 10:30:04;;;;;;;5.15;4.28;;;;;;;;;;5062396;28;20044;-81
2021/07/03 10:32:53;;;;;;;5.25;4.07;;;;;;;;;;5062569;28;20039;-81
2021/07/03 10:35:52;;;;;;;4.90;3.85;;;;;;;;;;5064130;28;20046;-81
2021/07/03 10:38:40;;;;;;;5.28;3.95;;;;;;;;;;5049352;28;20102;-81
2021/07/03 10:41:35;;;;;;;4.50;3.95;;;;;;;;;;5065149;28;20046;-80
2021/07/03 10:44:20;;;;;;;5.30;4.20;;;;;;;;;;5062854;28;20101;-80
2021/07/03 10:47:11;;;;;;;5.55;3.83;;;;;;;;;;5049842;28;20114;-81
2021/07/03 10:49:56;;;;;;;6.18;3.90;;;;;;;;;;5048232;28;20048;-81
2021/07/03 10:52:40;;;;;;;5.07;4.05;;;;;;;;;;5063371;28;20142;-80
2021/07/03 10:55:26;;;;;;;5.38;4.25;;;;;;;;;;5049842;28;20482;-81
2021/07/03 10:58:14;;;;;;;4.80;4.03;;;;;;;;;;5063750;28;20050;-80
2021/07/03 11:01:25;;;;;;;4.85;3.88;;;;;;;;;;5040710;28;20055;-80
2021/07/03 11:04:14;;;;;;;4.50;4.07;;;;;;;;;;5061337;28;20043;-81
2021/07/03 11:06:59;;;;;;;4.13;3.65;;;;;;;;;;5063296;28;20162;-80
2021/07/03 11:09:44;;;;;;;4.93;3.90;;;;;;;;;;5064743;28;20285;-80
2021/07/03 11:12:29;;;;;;;6.40;3.92;;;;;;;;;;5061003;28;20514;-81
2021/07/03 11:15:15;;;;;;;5.22;4.20;;;;;;;;;;5058132;28;20040;-80
2021/07/03 11:18:00;;;;;;;4.90;4.18;;;;;;;;;;5068961;28;20086;-81
2021/07/03 11:20:45;;;;;;;5.15;4.35;;;;;;;;;;5047473;28;20316;-81
2021/07/03 11:23:29;;;;;;;6.15;4.47;;;;;;;;;;5047557;28;20094;-80
2021/07/03 11:26:15;;;;;;;6.28;4.60;;;;;;;;;;5063196;28;20124;-80
2021/07/03 11:29:01;;;;;;;5.43;4.65;;;;;;;;;;5066168;28;20071;-80
2021/07/03 11:31:46;;;;;;;6.47;4.30;;;;;;;;;;5063626;28;20086;-80
2021/07/03 11:34:30;;;;;;;5.97;4.53;;;;;;;;;;5066914;28;20063;-80
2021/07/03 11:37:15;;;;;;;4.88;4.20;;;;;;;;;;5052674;28;20156;-81
2021/07/03 11:40:01;;;;;;;5.00;4.45;;;;;;;;;;5065369;28;20514;-80
2021/07/03 11:42:47;;;;;;;6.13;4.45;;;;;;;;;;5044907;28;20542;-80
2021/07/03 11:45:34;;;;;;;5.93;4.70;;;;;;;;;;5058354;28;20063;-80
2021/07/03 11:48:19;;;;;;;5.07;4.55;;;;;;;;;;5051482;28;20043;-80
2021/07/03 11:51:05;;;;;;;6.03;4.70;;;;;;;;;;5034427;28;20098;-80
2021/07/03 11:53:53;;;;;;;5.40;4.28;;;;;;;;;;5064680;28;20063;-80
2021/07/03 11:56:38;;;;;;;6.05;4.57;;;;;;;;;;5051451;28;20064;-80
2021/07/03 11:59:22;;;;;;;5.32;4.20;;;;;;;;;;5044656;28;20109;-80
2021/07/03 12:02:07;;;;;;;5.20;4.57;;;;;;;;;;5045414;28;20043;-80
2021/07/03 12:04:51;;;;;;;7.90;4.50;;;;;;;;;;5063466;28;20149;-80
2021/07/03 12:07:36;;;;;;;6.05;4.32;;;;;;;;;;5065341;28;20035;-80
2021/07/03 12:10:21;;;;;;;6.13;4.35;;;;;;;;;;5064603;28;20035;-80
2021/07/03 12:13:06;;;;;;;4.47;3.78;;;;;;;;;;5064529;28;20044;-80
2021/07/03 12:15:51;;;;;;;5.07;3.80;;;;;;;;;;5063392;28;20036;-80
2021/07/03 12:18:35;;;;;;;5.43;3.78;;;;;;;;;;5065611;28;20502;-80
2021/07/03 12:21:21;;;;;;;5.70;4.15;;;;;;;;;;5065408;28;20833;-79
2021/07/03 12:24:08;;;;;;;4.65;3.83;;;;;;;;;;5050362;28;20077;-80
2021/07/03 12:26:53;;;;;;;4.70;4.10;;;;;;;;;;5044409;28;20636;-80
2021/07/03 12:29:38;;;;;;;4.72;4.00;;;;;;;;;;5045344;28;20086;-80
2021/07/03 12:32:23;;;;;;;5.03;4.05;;;;;;;;;;5030914;28;20087;-80
2021/07/03 12:35:11;;;;;;;5.10;4.47;;;;;;;;;;5053681;28;20043;-80
2021/07/03 12:37:59;;;;;;;4.80;3.88;;;;;;;;;;5064690;28;20059;-80
2021/07/03 12:40:45;;;;;;;;;;;;;;;;;;4230968;28;24311276;-80
2021/07/03 12:43:32;;;;;;;4.90;4.15;;;;;;;;;;5017023;28;20298;-80
2021/07/03 12:46:17;;;;;;;4.45;3.78;;;;;;;;;;5064515;28;20078;-80
2021/07/03 12:49:01;;;;;;;4.25;3.70;;;;;;;;;;5065194;28;20161;-80
2021/07/03 12:51:46;;;;;;;4.28;3.40;;;;;;;;;;5059511;28;20611;-80
2021/07/03 12:54:31;;;;;;;5.05;3.90;;;;;;;;;;5051909;28;20039;-79
2021/07/03 12:57:16;;;;;;;5.50;3.50;;;;;;;;;;5065108;28;20467;-79
2021/07/03 13:00:01;;;;;;;5.00;3.55;;;;;;;;;;5050833;28;20185;-80
2021/07/03 13:02:46;;;;;;;4.75;3.75;;;;;;;;;;5050642;28;20407;-80
2021/07/03 13:05:30;;;;;;;4.22;3.70;;;;;;;;;;5051460;28;20411;-79
2021/07/03 13:08:15;;;;;;;4.07;3.60;;;;;;;;;;5062366;28;20645;-79
2021/07/03 13:11:00;;;;;;;5.38;3.55;;;;;;;;;;5063890;28;20047;-79
2021/07/03 13:13:44;;;;;;;4.10;3.60;;;;;;;;;;5061510;28;20540;-79
2021/07/03 13:16:29;;;;;;;4.00;3.60;;;;;;;;;;5049916;28;20039;-80
2021/07/03 13:19:13;;;;;;;4.25;3.53;;;;;;;;;;5066500;28;20051;-79
2021/07/03 13:21:57;;;;;;;3.90;3.47;;;;;;;;;;5051099;28;20047;-80
2021/07/03 13:24:43;;;;;;;3.53;3.22;;;;;;;;;;5064110;28;20043;-79
2021/07/03 13:27:28;;;;;;;4.22;3.38;;;;;;;;;;5063266;28;20059;-79
2021/07/03 13:30:13;;;;;;;3.97;3.58;;;;;;;;;;5063411;28;20458;-80
2021/07/03 13:32:59;;;;;;;4.57;3.90;;;;;;;;;;5065018;28;20510;-79
2021/07/03 13:35:44;;;;;;;3.97;3.58;;;;;;;;;;5050363;28;20462;-79
2021/07/03 13:38:29;;;;;;;3.85;3.35;;;;;;;;;;5063993;28;20055;-79
2021/07/03 13:41:13;;;;;;;4.57;3.45;;;;;;;;;;5063302;28;20090;-79
2021/07/03 13:43:58;;;;;;;5.10;3.15;;;;;;;;;;5063344;28;20044;-80
2021/07/03 13:46:42;;;;;;;4.18;3.58;;;;;;;;;;5064950;28;20059;-79
2021/07/03 13:49:27;;;;;;;4.80;3.72;;;;;;;;;;5063288;28;20040;-79
2021/07/03 13:52:11;;;;;;;4.00;3.60;;;;;;;;;;5064484;28;20396;-79
2021/07/03 13:54:56;;;;;;;4.32;3.47;;;;;;;;;;5043906;28;20110;-78
2021/07/03 13:57:40;;;;;;;4.00;3.60;;;;;;;;;;5061848;28;20043;-79
2021/07/03 14:00:25;;;;;;;3.85;3.38;;;;;;;;;;5062106;28;20047;-79
2021/07/03 14:03:10;;;;;;;5.07;3.72;;;;;;;;;;5064391;28;20079;-79
2021/07/03 14:05:55;;;;;;;4.10;3.70;;;;;;;;;;5049819;28;20040;-79
2021/07/03 14:08:41;;;;;;;4.40;3.55;;;;;;;;;;5050148;28;20093;-79
2021/07/03 14:11:26;;;;;;;3.83;3.40;;;;;;;;;;5043843;28;20052;-79
2021/07/03 14:14:10;;;;;;;3.92;3.53;;;;;;;;;;5056994;28;20039;-79
2021/07/03 14:16:55;;;;;;;3.90;3.58;;;;;;;;;;5052786;28;20094;-79
2021/07/03 14:19:40;;;;;;;3.90;3.50;;;;;;;;;;5030817;28;20146;-79
2021/07/03 14:22:24;;;;;;;3.97;3.58;;;;;;;;;;5049933;28;20039;-79
2021/07/03 14:25:09;;;;;;;4.03;3.63;;;;;;;;;;5049547;28;20097;-79
2021/07/03 14:27:54;;;;;;;3.88;3.47;;;;;;;;;;5062510;28;20059;-79
2021/07/03 14:30:39;;;;;;;4.50;3.83;;;;;;;;;;5053926;28;20631;-79
2021/07/03 14:33:24;;;;;;;5.80;3.90;;;;;;;;;;5049800;28;20031;-79
2021/07/03 14:36:09;;;;;;;3.95;3.47;;;;;;;;;;5063903;28;20063;-80
2021/07/03 14:38:54;;;;;;;4.28;3.88;;;;;;;;;;5049856;28;20098;-79
2021/07/03 14:41:38;;;;;;;5.47;3.70;;;;;;;;;;5062209;28;20545;-79
2021/07/03 14:44:23;;;;;;;4.80;3.80;;;;;;;;;;5060993;28;20407;-78
2021/07/03 14:47:07;;;;;;;4.10;3.38;;;;;;;;;;5049702;28;20051;-79
2021/07/03 14:49:52;;;;;;;4.03;3.60;;;;;;;;;;5042794;28;20518;-80
2021/07/03 14:52:36;;;;;;;4.53;3.47;;;;;;;;;;5057445;28;20032;-79
2021/07/03 14:55:21;;;;;;;4.25;3.65;;;;;;;;;;5049756;28;20047;-79
2021/07/03 14:58:06;;;;;;;4.13;3.72;;;;;;;;;;5062548;28;20090;-79
2021/07/03 15:00:50;;;;;;;4.47;3.72;;;;;;;;;;5064058;28;20039;-79
2021/07/03 15:03:35;;;;;;;4.55;4.00;;;;;;;;;;5062109;28;20582;-79
2021/07/03 15:06:20;;;;;;;4.07;3.67;;;;;;;;;;5064603;28;20055;-79
2021/07/03 15:09:05;;;;;;;4.30;3.85;;;;;;;;;;5061912;28;20036;-79
2021/07/03 15:11:49;;;;;;;4.10;3.70;;;;;;;;;;5058558;28;20040;-78
2021/07/03 15:14:34;;;;;;;4.28;3.70;;;;;;;;;;5060794;28;20047;-79
2021/07/03 15:17:18;;;;;;;5.78;4.35;;;;;;;;;;5064655;28;20176;-79
2021/07/03 15:20:04;;;;;;;5.53;4.20;;;;;;;;;;5054311;28;20174;-80
2021/07/03 15:22:48;;;;;;;5.28;4.20;;;;;;;;;;5048864;28;20141;-79
2021/07/03 15:25:33;;;;;;;4.75;4.00;;;;;;;;;;5063816;28;20105;-79
2021/07/03 15:28:18;;;;;;;4.93;4.00;;;;;;;;;;5063223;28;20074;-79
2021/07/03 15:31:02;;;;;;;4.57;3.75;;;;;;;;;;5063322;28;20188;-79
2021/07/03 15:33:47;;;;;;;4.40;4.00;;;;;;;;;;5062503;28;20086;-79
2021/07/03 15:36:31;;;;;;;5.07;4.40;;;;;;;;;;5048323;28;20031;-79
2021/07/03 15:39:17;;;;;;;5.38;4.10;;;;;;;;;;5062564;28;20075;-79
2021/07/03 15:42:01;;;;;;;4.82;4.10;;;;;;;;;;5062645;28;20119;-78
2021/07/03 15:44:46;;;;;;;4.88;4.35;;;;;;;;;;5061605;28;20043;-78
2021/07/03 15:47:30;;;;;;;5.57;4.32;;;;;;;;;;5063221;28;20059;-78
2021/07/03 15:50:15;;;;;;;6.18;4.20;;;;;;;;;;5037710;28;20624;-79
2021/07/03 15:52:59;;;;;;;4.57;3.97;;;;;;;;;;5050738;28;20082;-79
2021/07/03 15:55:45;;;;;;;6.10;4.55;;;;;;;;;;5064397;28;20412;-79
2021/07/03 15:58:30;;;;;;;5.47;4.30;;;;;;;;;;5064070;28;20051;-78
2021/07/03 16:01:14;;;;;;;5.22;4.22;;;;;;;;;;5049832;28;20047;-78
2021/07/03 16:04:01;;;;;;;5.32;4.55;;;;;;;;;;5052186;28;20379;-79
2021/07/03 16:06:46;;;;;;;5.90;4.50;;;;;;;;;;5065746;28;20526;-78
2021/07/03 16:09:30;;;;;;;5.53;4.38;;;;;;;;;;5065761;28;20123;-78
2021/07/03 16:12:15;;;;;;;5.00;4.07;;;;;;;;;;5066371;28;20410;-79
2021/07/03 16:14:59;;;;;;;5.32;4.20;;;;;;;;;;5040394;28;20035;-79
2021/07/03 16:17:47;;;;;;;5.47;4.22;;;;;;;;;;5066820;28;20086;-79
2021/07/03 16:20:32;;;;;;;4.65;4.15;;;;;;;;;;5051972;28;20181;-78
2021/07/03 16:23:17;;;;;;;6.05;4.85;;;;;;;;;;5066970;28;20102;-79
2021/07/03 16:26:02;;;;;;;5.93;4.72;;;;;;;;;;5065735;28;20054;-79
2021/07/03 16:28:46;;;;;;;4.65;4.00;;;;;;;;;;5052480;28;20039;-78